sensor_id;sensor_type;location;lat;lon;timestamp;pressure;altitude;pressure_sealevel;temperature;humidity
72585;BME280;60618;40.084;32.908;2022-12-18T00:01:34;90414.53;;;6.59;94.01
72585;BME280;60618;40.084;32.908;2022-12-18T00:04:03;90415.25;;;6.21;93.11
72585;BME280;60618;40.084;32.908;2022-12-18T00:06:31;90416.09;;;6.18;94.15
72585;BME280;60618;40.084;32.908;2022-12-18T00:09:00;90413.31;;;6.09;94.07
72585;BME280;60618;40.084;32.908;2022-12-18T00:11:29;90417.66;;;6.15;93.68
72585;BME280;60618;40.084;32.908;2022-12-18T00:13:58;90419.84;;;5.91;93.45
72585;BME280;60618;40.084;32.908;2022-12-18T00:16:26;90421.50;;;5.85;93.82
72585;BME280;60618;40.084;32.908;2022-12-18T00:18:56;90417.78;;;5.83;93.97
72585;BME280;60618;40.084;32.908;2022-12-18T00:21:23;90418.72;;;5.76;94.83
72585;BME280;60618;40.084;32.908;2022-12-18T00:23:51;90414.94;;;5.48;94.28
72585;BME280;60618;40.084;32.908;2022-12-18T00:26:44;90419.28;;;5.38;95.69
72585;BME280;60618;40.084;32.908;2022-12-18T00:29:13;90425.28;;;5.55;95.73
72585;BME280;60618;40.084;32.908;2022-12-18T00:31:41;90430.47;;;5.75;94.96
72585;BME280;60618;40.084;32.908;2022-12-18T00:34:12;90436.63;;;5.85;95.04
72585;BME280;60618;40.084;32.908;2022-12-18T00:36:40;90430.22;;;5.98;94.28
72585;BME280;60618;40.084;32.908;2022-12-18T00:39:07;90426.34;;;6.03;94.37
72585;BME280;60618;40.084;32.908;2022-12-18T00:41:34;90436.16;;;6.03;93.63
72585;BME280;60618;40.084;32.908;2022-12-18T00:44:02;90430.88;;;6.03;93.63
72585;BME280;60618;40.084;32.908;2022-12-18T00:46:30;90428.97;;;6.03;92.54
72585;BME280;60618;40.084;32.908;2022-12-18T00:48:58;90432.44;;;6.00;92.60
72585;BME280;60618;40.084;32.908;2022-12-18T00:51:25;90434.09;;;5.65;93.39
72585;BME280;60618;40.084;32.908;2022-12-18T00:53:52;90431.41;;;5.52;94.33
72585;BME280;60618;40.084;32.908;2022-12-18T00:56:23;90430.56;;;5.26;95.29
72585;BME280;60618;40.084;32.908;2022-12-18T00:58:50;90436.34;;;5.21;96.58
72585;BME280;60618;40.084;32.908;2022-12-18T01:01:17;90432.19;;;5.36;96.98
72585;BME280;60618;40.084;32.908;2022-12-18T01:03:45;90438.06;;;5.28;96.64
72585;BME280;60618;40.084;32.908;2022-12-18T01:06:13;90433.16;;;5.43;97.36
72585;BME280;60618;40.084;32.908;2022-12-18T01:08:40;90431.47;;;5.20;97.60
72585;BME280;60618;40.084;32.908;2022-12-18T01:11:13;90434.25;;;5.29;97.53
72585;BME280;60618;40.084;32.908;2022-12-18T01:13:40;90427.88;;;5.43;97.58
72585;BME280;60618;40.084;32.908;2022-12-18T01:16:08;90429.19;;;5.51;97.91
72585;BME280;60618;40.084;32.908;2022-12-18T01:18:35;90422.44;;;5.50;97.79
72585;BME280;60618;40.084;32.908;2022-12-18T01:21:07;90419.69;;;5.53;97.86
72585;BME280;60618;40.084;32.908;2022-12-18T01:23:34;90427.94;;;5.55;98.11
72585;BME280;60618;40.084;32.908;2022-12-18T01:26:09;90430.72;;;5.64;97.44
72585;BME280;60618;40.084;32.908;2022-12-18T01:28:37;90421.69;;;5.78;97.46
72585;BME280;60618;40.084;32.908;2022-12-18T01:31:15;90423.28;;;5.76;96.39
72585;BME280;60618;40.084;32.908;2022-12-18T01:33:43;90428.91;;;5.32;96.96
72585;BME280;60618;40.084;32.908;2022-12-18T01:38:47;90429.16;;;5.22;98.27
72585;BME280;60618;40.084;32.908;2022-12-18T01:41:15;90433.88;;;5.14;98.90
72585;BME280;60618;40.084;32.908;2022-12-18T01:43:50;90431.28;;;5.27;98.76
72585;BME280;60618;40.084;32.908;2022-12-18T01:46:18;90427.94;;;5.10;98.41
72585;BME280;60618;40.084;32.908;2022-12-18T01:48:48;90420.41;;;5.08;99.21
72585;BME280;60618;40.084;32.908;2022-12-18T01:51:16;90419.69;;;4.75;99.59
72585;BME280;60618;40.084;32.908;2022-12-18T01:53:44;90419.44;;;4.53;99.78
72585;BME280;60618;40.084;32.908;2022-12-18T01:56:15;90432.34;;;4.48;100.00
72585;BME280;60618;40.084;32.908;2022-12-18T01:59:12;90430.22;;;4.43;100.00
72585;BME280;60618;40.084;32.908;2022-12-18T02:01:38;90432.34;;;4.32;100.00
72585;BME280;60618;40.084;32.908;2022-12-18T02:04:24;90425.38;;;4.21;100.00
72585;BME280;60618;40.084;32.908;2022-12-18T02:07:21;90428.72;;;4.25;100.00
72585;BME280;60618;40.084;32.908;2022-12-18T02:09:51;90429.22;;;4.37;100.00
72585;BME280;60618;40.084;32.908;2022-12-18T02:12:23;90421.41;;;4.66;100.00
72585;BME280;60618;40.084;32.908;2022-12-18T02:15:03;90426.47;;;4.76;100.00
72585;BME280;60618;40.084;32.908;2022-12-18T02:17:44;90429.28;;;4.86;100.00
72585;BME280;60618;40.084;32.908;2022-12-18T02:20:25;90439.81;;;5.02;100.00
72585;BME280;60618;40.084;32.908;2022-12-18T02:23:24;90430.16;;;5.11;100.00
72585;BME280;60618;40.084;32.908;2022-12-18T02:26:29;90435.94;;;5.06;100.00
72585;BME280;60618;40.084;32.908;2022-12-18T02:29:03;90431.25;;;4.98;100.00
72585;BME280;60618;40.084;32.908;2022-12-18T02:31:37;90441.88;;;4.94;99.62
72585;BME280;60618;40.084;32.908;2022-12-18T02:34:08;90432.88;;;4.59;100.00
72585;BME280;60618;40.084;32.908;2022-12-18T02:36:38;90446.34;;;4.28;100.00
72585;BME280;60618;40.084;32.908;2022-12-18T02:39:09;90436.00;;;4.18;100.00
72585;BME280;60618;40.084;32.908;2022-12-18T02:41:37;90434.94;;;4.15;100.00
72585;BME280;60618;40.084;32.908;2022-12-18T02:44:11;90442.84;;;4.15;100.00
72585;BME280;60618;40.084;32.908;2022-12-18T02:46:41;90436.94;;;4.27;100.00
72585;BME280;60618;40.084;32.908;2022-12-18T02:54:50;90439.25;;;4.78;100.00
72585;BME280;60618;40.084;32.908;2022-12-18T02:57:48;90433.72;;;4.89;100.00
72585;BME280;60618;40.084;32.908;2022-12-18T03:00:23;90443.34;;;5.11;100.00
72585;BME280;60618;40.084;32.908;2022-12-18T03:03:11;90439.47;;;5.00;100.00
72585;BME280;60618;40.084;32.908;2022-12-18T03:05:49;90443.78;;;4.77;100.00
72585;BME280;60618;40.084;32.908;2022-12-18T03:08:33;90433.53;;;4.63;100.00
72585;BME280;60618;40.084;32.908;2022-12-18T03:11:05;90448.34;;;4.41;100.00
72585;BME280;60618;40.084;32.908;2022-12-18T03:13:37;90445.19;;;4.30;100.00
72585;BME280;60618;40.084;32.908;2022-12-18T03:16:10;90454.44;;;4.38;100.00
72585;BME280;60618;40.084;32.908;2022-12-18T03:18:59;90450.16;;;4.44;100.00
72585;BME280;60618;40.084;32.908;2022-12-18T03:21:35;90451.41;;;4.55;100.00
72585;BME280;60618;40.084;32.908;2022-12-18T03:24:06;90458.63;;;4.71;100.00
72585;BME280;60618;40.084;32.908;2022-12-18T03:26:36;90457.63;;;4.81;100.00
72585;BME280;60618;40.084;32.908;2022-12-18T03:29:12;90464.41;;;4.99;100.00
72585;BME280;60618;40.084;32.908;2022-12-18T03:31:43;90465.56;;;5.14;100.00
72585;BME280;60618;40.084;32.908;2022-12-18T03:34:17;90456.97;;;4.94;100.00
72585;BME280;60618;40.084;32.908;2022-12-18T03:36:48;90460.69;;;4.96;100.00
72585;BME280;60618;40.084;32.908;2022-12-18T03:39:15;90463.34;;;5.12;99.84
72585;BME280;60618;40.084;32.908;2022-12-18T03:41:47;90465.81;;;5.03;99.37
72585;BME280;60618;40.084;32.908;2022-12-18T03:47:09;90462.19;;;4.97;99.35
72585;BME280;60618;40.084;32.908;2022-12-18T03:52:29;90476.69;;;4.89;99.08
72585;BME280;60618;40.084;32.908;2022-12-18T03:54:59;90471.31;;;4.93;99.36
72585;BME280;60618;40.084;32.908;2022-12-18T03:57:29;90479.75;;;4.88;99.42
72585;BME280;60618;40.084;32.908;2022-12-18T04:00:01;90483.69;;;5.12;99.05
72585;BME280;60618;40.084;32.908;2022-12-18T04:02:31;90490.47;;;5.29;98.04
72585;BME280;60618;40.084;32.908;2022-12-18T04:05:02;90483.38;;;5.26;98.61
72585;BME280;60618;40.084;32.908;2022-12-18T04:07:31;90477.44;;;5.22;98.96
72585;BME280;60618;40.084;32.908;2022-12-18T04:10:00;90482.06;;;5.18;98.13
72585;BME280;60618;40.084;32.908;2022-12-18T04:12:29;90477.81;;;5.37;97.65
72585;BME280;60618;40.084;32.908;2022-12-18T04:14:56;90482.69;;;5.38;97.97
72585;BME280;60618;40.084;32.908;2022-12-18T04:17:23;90491.97;;;5.14;97.83
72585;BME280;60618;40.084;32.908;2022-12-18T04:19:49;90496.66;;;5.06;97.98
72585;BME280;60618;40.084;32.908;2022-12-18T04:22:16;90495.91;;;5.06;98.26
72585;BME280;60618;40.084;32.908;2022-12-18T04:24:43;90503.34;;;5.27;97.94
72585;BME280;60618;40.084;32.908;2022-12-18T04:27:10;90506.13;;;5.36;97.74
72585;BME280;60618;40.084;32.908;2022-12-18T04:29:37;90499.53;;;5.28;98.50
72585;BME280;60618;40.084;32.908;2022-12-18T04:32:04;90505.25;;;5.27;98.46
72585;BME280;60618;40.084;32.908;2022-12-18T04:34:31;90504.50;;;5.26;99.32
72585;BME280;60618;40.084;32.908;2022-12-18T04:36:58;90505.56;;;5.29;98.77
72585;BME280;60618;40.084;32.908;2022-12-18T04:39:25;90508.47;;;5.34;99.04
72585;BME280;60618;40.084;32.908;2022-12-18T04:41:52;90508.53;;;5.47;98.57
72585;BME280;60618;40.084;32.908;2022-12-18T04:44:18;90515.19;;;5.68;98.44
72585;BME280;60618;40.084;32.908;2022-12-18T04:46:45;90515.44;;;5.74;98.11
72585;BME280;60618;40.084;32.908;2022-12-18T04:49:12;90513.78;;;5.63;97.53
72585;BME280;60618;40.084;32.908;2022-12-18T04:51:39;90516.06;;;5.49;97.09
72585;BME280;60618;40.084;32.908;2022-12-18T04:54:06;90517.69;;;5.26;97.27
72585;BME280;60618;40.084;32.908;2022-12-18T04:56:33;90531.16;;;5.16;97.57
72585;BME280;60618;40.084;32.908;2022-12-18T04:59:00;90530.47;;;5.11;98.28
72585;BME280;60618;40.084;32.908;2022-12-18T05:01:26;90534.25;;;4.94;98.87
72585;BME280;60618;40.084;32.908;2022-12-18T05:04:01;90535.75;;;4.95;99.11
72585;BME280;60618;40.084;32.908;2022-12-18T05:06:28;90535.59;;;4.86;99.18
72585;BME280;60618;40.084;32.908;2022-12-18T05:08:55;90534.91;;;4.82;99.72
72585;BME280;60618;40.084;32.908;2022-12-18T05:11:22;90540.53;;;5.00;99.52
72585;BME280;60618;40.084;32.908;2022-12-18T05:13:50;90541.78;;;5.12;99.72
72585;BME280;60618;40.084;32.908;2022-12-18T05:16:17;90536.88;;;5.30;99.29
72585;BME280;60618;40.084;32.908;2022-12-18T05:18:44;90531.41;;;5.37;99.22
72585;BME280;60618;40.084;32.908;2022-12-18T05:21:11;90535.84;;;5.57;99.25
72585;BME280;60618;40.084;32.908;2022-12-18T05:23:38;90541.13;;;5.73;98.56
72585;BME280;60618;40.084;32.908;2022-12-18T05:26:06;90536.97;;;5.88;98.12
72585;BME280;60618;40.084;32.908;2022-12-18T05:28:35;90538.41;;;5.77;97.85
72585;BME280;60618;40.084;32.908;2022-12-18T05:31:03;90535.34;;;5.78;98.62
72585;BME280;60618;40.084;32.908;2022-12-18T05:33:32;90537.63;;;5.92;98.64
72585;BME280;60618;40.084;32.908;2022-12-18T05:36:01;90540.69;;;5.91;98.31
72585;BME280;60618;40.084;32.908;2022-12-18T05:38:29;90547.88;;;5.90;98.12
72585;BME280;60618;40.084;32.908;2022-12-18T05:40:57;90549.72;;;5.93;98.23
72585;BME280;60618;40.084;32.908;2022-12-18T05:43:25;90550.00;;;6.12;97.87
72585;BME280;60618;40.084;32.908;2022-12-18T05:45:53;90557.06;;;6.31;97.99
72585;BME280;60618;40.084;32.908;2022-12-18T05:48:20;90553.25;;;6.32;97.46
72585;BME280;60618;40.084;32.908;2022-12-18T05:50:49;90565.75;;;6.44;97.37
72585;BME280;60618;40.084;32.908;2022-12-18T05:53:18;90560.84;;;6.59;97.21
72585;BME280;60618;40.084;32.908;2022-12-18T05:55:46;90554.84;;;6.30;97.43
72585;BME280;60618;40.084;32.908;2022-12-18T05:58:14;90566.13;;;6.01;97.83
72585;BME280;60618;40.084;32.908;2022-12-18T06:00:44;90567.13;;;6.07;98.19
72585;BME280;60618;40.084;32.908;2022-12-18T06:03:14;90563.44;;;6.17;97.91
72585;BME280;60618;40.084;32.908;2022-12-18T06:05:43;90565.94;;;6.37;97.64
72585;BME280;60618;40.084;32.908;2022-12-18T06:08:11;90568.59;;;6.37;97.85
72585;BME280;60618;40.084;32.908;2022-12-18T06:10:39;90574.88;;;6.43;97.58
72585;BME280;60618;40.084;32.908;2022-12-18T06:13:08;90580.31;;;6.23;97.83
72585;BME280;60618;40.084;32.908;2022-12-18T06:15:37;90583.88;;;6.17;98.38
72585;BME280;60618;40.084;32.908;2022-12-18T06:18:05;90579.38;;;6.30;98.21
72585;BME280;60618;40.084;32.908;2022-12-18T06:20:31;90588.94;;;6.40;98.12
72585;BME280;60618;40.084;32.908;2022-12-18T06:22:59;90586.72;;;6.39;97.88
72585;BME280;60618;40.084;32.908;2022-12-18T06:25:28;90578.97;;;6.32;98.63
72585;BME280;60618;40.084;32.908;2022-12-18T06:27:55;90580.63;;;6.25;98.94
72585;BME280;60618;40.084;32.908;2022-12-18T06:30:22;90587.25;;;6.46;98.54
72585;BME280;60618;40.084;32.908;2022-12-18T06:32:49;90591.28;;;6.38;98.46
72585;BME280;60618;40.084;32.908;2022-12-18T06:35:22;90596.13;;;6.40;98.32
72585;BME280;60618;40.084;32.908;2022-12-18T06:37:52;90595.25;;;6.59;98.38
72585;BME280;60618;40.084;32.908;2022-12-18T06:40:19;90603.88;;;6.76;98.05
72585;BME280;60618;40.084;32.908;2022-12-18T06:42:46;90599.03;;;6.87;97.72
72585;BME280;60618;40.084;32.908;2022-12-18T06:45:15;90599.94;;;6.68;97.84
72585;BME280;60618;40.084;32.908;2022-12-18T06:47:45;90597.91;;;6.59;98.06
72585;BME280;60618;40.084;32.908;2022-12-18T06:50:13;90601.88;;;6.51;98.99
72585;BME280;60618;40.084;32.908;2022-12-18T06:52:42;90603.56;;;6.45;99.03
72585;BME280;60618;40.084;32.908;2022-12-18T06:55:12;90615.34;;;6.57;99.48
72585;BME280;60618;40.084;32.908;2022-12-18T06:57:39;90618.88;;;6.37;99.78
72585;BME280;60618;40.084;32.908;2022-12-18T07:00:06;90620.97;;;6.30;99.93
72585;BME280;60618;40.084;32.908;2022-12-18T07:02:34;90622.47;;;6.14;100.00
72585;BME280;60618;40.084;32.908;2022-12-18T07:05:01;90621.47;;;6.08;100.00
72585;BME280;60618;40.084;32.908;2022-12-18T07:07:35;90620.41;;;6.06;100.00
72585;BME280;60618;40.084;32.908;2022-12-18T07:10:03;90633.75;;;6.02;100.00
72585;BME280;60618;40.084;32.908;2022-12-18T07:12:30;90624.88;;;6.09;100.00
72585;BME280;60618;40.084;32.908;2022-12-18T07:14:57;90628.16;;;6.29;100.00
72585;BME280;60618;40.084;32.908;2022-12-18T07:17:25;90627.97;;;6.36;100.00
72585;BME280;60618;40.084;32.908;2022-12-18T07:19:52;90629.69;;;6.43;100.00
72585;BME280;60618;40.084;32.908;2022-12-18T07:22:20;90638.78;;;6.42;100.00
72585;BME280;60618;40.084;32.908;2022-12-18T07:24:47;90639.84;;;6.44;100.00
72585;BME280;60618;40.084;32.908;2022-12-18T07:27:13;90645.56;;;6.72;100.00
72585;BME280;60618;40.084;32.908;2022-12-18T07:29:40;90655.38;;;7.00;100.00
72585;BME280;60618;40.084;32.908;2022-12-18T07:32:08;90650.22;;;7.09;100.00
72585;BME280;60618;40.084;32.908;2022-12-18T07:34:34;90646.88;;;7.22;100.00
72585;BME280;60618;40.084;32.908;2022-12-18T07:37:02;90647.25;;;7.07;99.78
72585;BME280;60618;40.084;32.908;2022-12-18T07:39:32;90649.81;;;7.11;99.83
72585;BME280;60618;40.084;32.908;2022-12-18T07:41:59;90657.75;;;7.11;99.17
72585;BME280;60618;40.084;32.908;2022-12-18T07:44:26;90646.91;;;6.93;99.82
72585;BME280;60618;40.084;32.908;2022-12-18T07:46:52;90649.56;;;6.93;99.68
72585;BME280;60618;40.084;32.908;2022-12-18T07:49:20;90656.97;;;6.85;99.80
72585;BME280;60618;40.084;32.908;2022-12-18T07:51:46;90652.22;;;6.93;100.00
72585;BME280;60618;40.084;32.908;2022-12-18T07:54:13;90661.22;;;6.95;100.00
72585;BME280;60618;40.084;32.908;2022-12-18T07:56:40;90670.66;;;6.96;100.00
72585;BME280;60618;40.084;32.908;2022-12-18T07:59:07;90664.09;;;6.72;100.00
72585;BME280;60618;40.084;32.908;2022-12-18T08:01:34;90667.69;;;6.65;100.00
72585;BME280;60618;40.084;32.908;2022-12-18T08:04:01;90667.91;;;6.71;100.00
72585;BME280;60618;40.084;32.908;2022-12-18T08:06:28;90665.97;;;6.59;100.00
72585;BME280;60618;40.084;32.908;2022-12-18T08:08:56;90671.84;;;6.50;100.00
72585;BME280;60618;40.084;32.908;2022-12-18T08:11:25;90671.34;;;6.55;100.00
72585;BME280;60618;40.084;32.908;2022-12-18T08:13:53;90668.00;;;6.67;100.00
72585;BME280;60618;40.084;32.908;2022-12-18T08:16:21;90670.56;;;6.71;100.00
72585;BME280;60618;40.084;32.908;2022-12-18T08:18:48;90671.63;;;6.73;100.00
72585;BME280;60618;40.084;32.908;2022-12-18T08:21:21;90667.00;;;6.77;100.00
72585;BME280;60618;40.084;32.908;2022-12-18T08:23:50;90670.69;;;6.80;100.00
72585;BME280;60618;40.084;32.908;2022-12-18T08:26:18;90659.41;;;6.92;100.00
72585;BME280;60618;40.084;32.908;2022-12-18T08:28:46;90648.13;;;6.75;100.00
72585;BME280;60618;40.084;32.908;2022-12-18T08:31:13;90648.28;;;6.85;100.00
72585;BME280;60618;40.084;32.908;2022-12-18T08:33:41;90654.31;;;6.85;100.00
72585;BME280;60618;40.084;32.908;2022-12-18T08:36:09;90645.69;;;6.81;100.00
72585;BME280;60618;40.084;32.908;2022-12-18T08:38:37;90644.22;;;6.80;100.00
72585;BME280;60618;40.084;32.908;2022-12-18T08:41:09;90636.59;;;6.82;100.00
72585;BME280;60618;40.084;32.908;2022-12-18T08:43:37;90641.34;;;6.74;100.00
72585;BME280;60618;40.084;32.908;2022-12-18T08:46:04;90644.53;;;6.82;100.00
72585;BME280;60618;40.084;32.908;2022-12-18T08:48:31;90638.31;;;6.89;100.00
72585;BME280;60618;40.084;32.908;2022-12-18T08:50:59;90632.16;;;6.79;100.00
72585;BME280;60618;40.084;32.908;2022-12-18T08:53:27;90633.13;;;6.85;100.00
72585;BME280;60618;40.084;32.908;2022-12-18T08:56:01;90631.78;;;6.93;100.00
72585;BME280;60618;40.084;32.908;2022-12-18T08:58:28;90630.50;;;6.98;100.00
72585;BME280;60618;40.084;32.908;2022-12-18T09:01:22;90622.00;;;6.90;100.00
72585;BME280;60618;40.084;32.908;2022-12-18T09:03:52;90624.34;;;6.88;100.00
72585;BME280;60618;40.084;32.908;2022-12-18T09:06:21;90611.22;;;6.97;100.00
72585;BME280;60618;40.084;32.908;2022-12-18T09:08:48;90608.75;;;6.90;100.00
72585;BME280;60618;40.084;32.908;2022-12-18T09:11:24;90608.63;;;6.81;100.00
72585;BME280;60618;40.084;32.908;2022-12-18T09:13:52;90606.66;;;6.85;100.00
72585;BME280;60618;40.084;32.908;2022-12-18T09:16:20;90600.38;;;6.92;100.00
72585;BME280;60618;40.084;32.908;2022-12-18T09:18:57;90600.72;;;6.94;100.00
72585;BME280;60618;40.084;32.908;2022-12-18T09:21:27;90594.28;;;6.95;100.00
72585;BME280;60618;40.084;32.908;2022-12-18T09:23:55;90589.72;;;6.95;100.00
72585;BME280;60618;40.084;32.908;2022-12-18T09:26:23;90591.75;;;7.04;100.00
72585;BME280;60618;40.084;32.908;2022-12-18T09:28:50;90582.50;;;7.08;100.00
72585;BME280;60618;40.084;32.908;2022-12-18T09:31:20;90584.88;;;7.19;100.00
72585;BME280;60618;40.084;32.908;2022-12-18T09:33:47;90584.53;;;7.17;100.00
72585;BME280;60618;40.084;32.908;2022-12-18T09:36:16;90586.13;;;7.27;100.00
72585;BME280;60618;40.084;32.908;2022-12-18T09:38:44;90580.09;;;7.27;100.00
72585;BME280;60618;40.084;32.908;2022-12-18T09:41:39;90580.09;;;7.14;100.00
72585;BME280;60618;40.084;32.908;2022-12-18T09:44:29;90579.16;;;7.21;100.00
72585;BME280;60618;40.084;32.908;2022-12-18T09:49:32;90568.34;;;7.15;100.00
72585;BME280;60618;40.084;32.908;2022-12-18T09:52:09;90571.41;;;7.14;100.00
72585;BME280;60618;40.084;32.908;2022-12-18T09:54:40;90568.22;;;7.19;100.00
72585;BME280;60618;40.084;32.908;2022-12-18T09:57:14;90566.97;;;7.10;100.00
72585;BME280;60618;40.084;32.908;2022-12-18T09:59:44;90550.84;;;6.92;100.00
72585;BME280;60618;40.084;32.908;2022-12-18T10:02:19;90556.03;;;6.96;100.00
72585;BME280;60618;40.084;32.908;2022-12-18T10:05:04;90552.94;;;6.97;100.00
72585;BME280;60618;40.084;32.908;2022-12-18T10:07:52;90551.34;;;7.00;100.00
72585;BME280;60618;40.084;32.908;2022-12-18T10:21:16;90549.34;;;6.91;100.00
72585;BME280;60618;40.084;32.908;2022-12-18T10:24:28;90541.81;;;6.90;100.00
72585;BME280;60618;40.084;32.908;2022-12-18T10:27:16;90537.25;;;6.90;100.00
72585;BME280;60618;40.084;32.908;2022-12-18T10:29:45;90540.34;;;6.89;100.00
72585;BME280;60618;40.084;32.908;2022-12-18T10:32:18;90530.50;;;6.89;100.00
72585;BME280;60618;40.084;32.908;2022-12-18T10:34:47;90540.13;;;6.96;100.00
72585;BME280;60618;40.084;32.908;2022-12-18T10:37:20;90536.94;;;7.01;100.00
72585;BME280;60618;40.084;32.908;2022-12-18T10:40:11;90529.13;;;6.97;100.00
72585;BME280;60618;40.084;32.908;2022-12-18T10:43:10;90525.31;;;6.98;100.00
72585;BME280;60618;40.084;32.908;2022-12-18T10:45:37;90527.31;;;6.94;100.00
72585;BME280;60618;40.084;32.908;2022-12-18T10:48:16;90521.06;;;6.88;100.00
72585;BME280;60618;40.084;32.908;2022-12-18T10:50:47;90519.69;;;6.96;100.00
72585;BME280;60618;40.084;32.908;2022-12-18T10:53:36;90524.69;;;6.94;100.00
72585;BME280;60618;40.084;32.908;2022-12-18T10:56:06;90514.28;;;7.00;100.00
72585;BME280;60618;40.084;32.908;2022-12-18T10:58:35;90523.06;;;7.09;100.00
72585;BME280;60618;40.084;32.908;2022-12-18T11:03:44;90524.16;;;7.12;100.00
72585;BME280;60618;40.084;32.908;2022-12-18T11:06:12;90520.13;;;7.20;100.00
72585;BME280;60618;40.084;32.908;2022-12-18T11:08:42;90522.69;;;7.11;100.00
72585;BME280;60618;40.084;32.908;2022-12-18T11:11:21;90518.00;;;7.15;100.00
72585;BME280;60618;40.084;32.908;2022-12-18T11:14:14;90516.53;;;7.14;100.00
72585;BME280;60618;40.084;32.908;2022-12-18T11:16:46;90515.22;;;7.19;100.00
72585;BME280;60618;40.084;32.908;2022-12-18T11:19:39;90526.06;;;7.11;100.00
72585;BME280;60618;40.084;32.908;2022-12-18T11:22:25;90514.63;;;7.15;100.00
72585;BME280;60618;40.084;32.908;2022-12-18T11:25:18;90514.63;;;7.15;100.00
72585;BME280;60618;40.084;32.908;2022-12-18T11:33:46;90507.63;;;7.21;100.00
72585;BME280;60618;40.084;32.908;2022-12-18T11:36:41;90508.25;;;7.25;100.00
72585;BME280;60618;40.084;32.908;2022-12-18T11:41:52;90513.13;;;7.14;100.00
72585;BME280;60618;40.084;32.908;2022-12-18T11:44:27;90512.91;;;7.21;100.00
72585;BME280;60618;40.084;32.908;2022-12-18T11:47:03;90507.50;;;7.24;100.00
72585;BME280;60618;40.084;32.908;2022-12-18T11:49:36;90506.22;;;7.16;100.00
72585;BME280;60618;40.084;32.908;2022-12-18T11:55:00;90511.94;;;7.27;100.00
72585;BME280;60618;40.084;32.908;2022-12-18T11:57:36;90517.97;;;7.28;100.00
72585;BME280;60618;40.084;32.908;2022-12-18T12:00:18;90508.44;;;7.43;100.00
72585;BME280;60618;40.084;32.908;2022-12-18T12:13:23;90506.31;;;7.51;100.00
72585;BME280;60618;40.084;32.908;2022-12-18T12:21:42;90507.97;;;7.70;100.00
72585;BME280;60618;40.084;32.908;2022-12-18T12:24:18;90509.50;;;7.80;100.00
72585;BME280;60618;40.084;32.908;2022-12-18T12:35:00;90511.88;;;8.35;98.44
72585;BME280;60618;40.084;32.908;2022-12-18T12:40:02;90510.25;;;8.15;97.23
72585;BME280;60618;40.084;32.908;2022-12-18T12:46:05;90511.00;;;7.81;99.28
72585;BME280;60618;40.084;32.908;2022-12-18T12:49:02;90505.34;;;7.57;99.53
72585;BME280;60618;40.084;32.908;2022-12-18T12:51:33;90513.22;;;7.48;100.00
72585;BME280;60618;40.084;32.908;2022-12-18T12:54:03;90503.03;;;7.47;100.00
72585;BME280;60618;40.084;32.908;2022-12-18T12:56:41;90506.94;;;7.42;100.00
72585;BME280;60618;40.084;32.908;2022-12-18T13:04:55;90508.34;;;7.34;100.00
72585;BME280;60618;40.084;32.908;2022-12-18T13:07:29;90522.88;;;7.29;100.00
72585;BME280;60618;40.084;32.908;2022-12-18T13:13:00;90521.19;;;7.23;100.00
72585;BME280;60618;40.084;32.908;2022-12-18T13:15:42;90528.06;;;7.20;100.00
72585;BME280;60618;40.084;32.908;2022-12-18T13:18:18;90520.66;;;7.15;100.00
72585;BME280;60618;40.084;32.908;2022-12-18T13:23:36;90524.69;;;7.20;100.00
72585;BME280;60618;40.084;32.908;2022-12-18T13:31:01;90533.03;;;7.05;100.00
72585;BME280;60618;40.084;32.908;2022-12-18T13:36:28;90524.38;;;6.92;100.00
72585;BME280;60618;40.084;32.908;2022-12-18T13:44:37;90519.38;;;6.94;100.00
72585;BME280;60618;40.084;32.908;2022-12-18T13:47:36;90523.72;;;7.01;100.00
72585;BME280;60618;40.084;32.908;2022-12-18T13:50:20;90530.19;;;7.00;100.00
72585;BME280;60618;40.084;32.908;2022-12-18T13:52:50;90525.09;;;7.05;100.00
72585;BME280;60618;40.084;32.908;2022-12-18T13:55:19;90532.72;;;6.91;100.00
72585;BME280;60618;40.084;32.908;2022-12-18T13:57:47;90530.06;;;6.91;100.00
72585;BME280;60618;40.084;32.908;2022-12-18T14:00:28;90530.41;;;6.93;100.00
72585;BME280;60618;40.084;32.908;2022-12-18T14:02:57;90530.50;;;6.89;100.00
72585;BME280;60618;40.084;32.908;2022-12-18T14:05:36;90522.53;;;6.89;100.00
72585;BME280;60618;40.084;32.908;2022-12-18T14:08:11;90532.63;;;6.94;100.00
72585;BME280;60618;40.084;32.908;2022-12-18T14:10:41;90528.69;;;6.86;100.00
72585;BME280;60618;40.084;32.908;2022-12-18T14:13:28;90532.81;;;6.87;100.00
72585;BME280;60618;40.084;32.908;2022-12-18T14:15:57;90530.06;;;6.78;100.00
72585;BME280;60618;40.084;32.908;2022-12-18T14:18:50;90534.69;;;6.74;100.00
72585;BME280;60618;40.084;32.908;2022-12-18T14:21:22;90535.34;;;6.78;100.00
72585;BME280;60618;40.084;32.908;2022-12-18T14:24:04;90532.91;;;6.71;100.00
72585;BME280;60618;40.084;32.908;2022-12-18T14:26:31;90527.94;;;6.73;100.00
72585;BME280;60618;40.084;32.908;2022-12-18T14:29:01;90524.03;;;6.77;100.00
72585;BME280;60618;40.084;32.908;2022-12-18T14:31:44;90530.81;;;6.78;100.00
72585;BME280;60618;40.084;32.908;2022-12-18T14:34:18;90527.09;;;6.76;100.00
72585;BME280;60618;40.084;32.908;2022-12-18T14:36:54;90525.31;;;6.86;100.00
72585;BME280;60618;40.084;32.908;2022-12-18T14:39:21;90535.59;;;6.96;100.00
72585;BME280;60618;40.084;32.908;2022-12-18T14:41:49;90521.81;;;6.89;100.00
72585;BME280;60618;40.084;32.908;2022-12-18T14:44:16;90526.16;;;7.08;100.00
72585;BME280;60618;40.084;32.908;2022-12-18T14:46:44;90523.19;;;6.93;100.00
72585;BME280;60618;40.084;32.908;2022-12-18T14:49:33;90519.59;;;6.87;100.00
72585;BME280;60618;40.084;32.908;2022-12-18T14:52:04;90521.38;;;6.77;100.00
72585;BME280;60618;40.084;32.908;2022-12-18T14:54:35;90529.22;;;6.81;100.00
72585;BME280;60618;40.084;32.908;2022-12-18T14:57:25;90533.44;;;6.66;100.00